DAAE

Soummam Airport

Béjaïa, Algeria
METAR DAAE 170500Z 27008KT 7000 SCT020 FEW026CB BKN040 09/08 Q1023
Observed Flight Rules
Dec-17 @ 05:00 UTC (an hour ago) Marginal Visual Flight Rules
Wind Visibility Clouds
270° at 8 knots 7,001 meters
  • Scattered at 2,000' AGL
  • Few at 2,600' AGL
  • Broken at 4,000' AGL
Temperatures Readings
Current 9°C / 48°F
Dewpoint 8°C / 46°F
Humidity 94%
Altimeter 30.21" Hg
Pressure 1023 hPa
Elevation 2
METAR DAAE 170500Z 27008KT 7000 SCT020 FEW026CB BKN040 09/08 Q1023
Observed Flight Rules
Dec-17 @ 05:00 UTC
(an hour ago)
MVFR
Wind Visibility
270° at 8 knots 7,001 meters
Clouds
  • Scattered at 2,000' AGL
  • Few at 2,600' AGL
  • Broken at 4,000' AGL
Temperature Dewpoint
9°C / 48°F 8°C / 46°F
Humidity Altimeter Pressure
94% 30.21" Hg 1023 hPa